Accueil
METAR-TAF:

METAR-TAF

Aéroports :

Aéroport de Saint-Nazaire - Montoir

Saint-Nazaire, France

latitude: 47-19N, longitude: 002-10W, altitude: 3 m

Observation

Le bulletin a été fait il y a 28 minutes, à 17:30 UTC
Vent 14 kt de ouest, variant entre sud-ouest et ouest/nord-ouest
Température 20°C
Humidité 64%
Pression 1016 hPa
Visibilité 10 km ou plus
Nuages fragmentés à une hauteur de 3400 ft
Nuages fragmentés à une hauteur de 4000 ft
Nuages fragmentés à une hauteur de 5000 ft

METAR: LFRZ 281730Z AUTO 26014KT 230V300 9999 BKN034 BKN040 BKN050 20/13 Q1016 NOSIG

Heure: 19:58 (17:58 UTC)

Prévision

Le bulletin a été fait il y a 58 minutes, à 17:00 UTC
Prévision valable du 28 à 18 UTC au 29 à 18 UTC
Vent 15 kt de ouest/sud-ouest
Visibilité 10 km ou plus
Nuages épars à une hauteur de 3000 ft
Evoluant progressivement
du 29 à 02 UTC au 29 à 04 UTC
Vent 4 kt de ouest

TAF: LFRZ 281700Z 2818/2918 25015KT 9999 SCT030 BECMG 2902/2904 27004KT

Observations et prévisions météorologiques de plus de 4000 aéroports (messages METAR et TAF).

Les stations disponibles sont représentées par des disques jaunes et rouges sur la carte.

Passer la souris dessus pour voir le nom de la station.

Cliquer dessus pour voir les observations et prévisions météorologiques.

Pour changer de carte: cliquez sur les boutons verts avec une croix noire pour zoomer, sur le bouton vert avec un tiret pour effectuer un zoom arrière, ou sur les flèches vertes pour les cartes adjacentes.


METAR-TAF: